Time;durP1;ratioP1;P1;durP2;ratioP2;P2;SDS_P1;SDS_P2;PMS_P1;PMS_P2;Temp;Humidity;BMP_temperature;BMP_pressure;BME280_temperature;BME280_humidity;BME280_pressure;Samples;Min_cycle;Max_cycle;Signal;HPM_P1;HPM_P2
2023/10/01 00:07:36;;;;;;;8.50;2.15;;;14.50;99.90;;;;;;4935286;29;20083;-96
2023/10/01 00:14:23;;;;;;;7.28;2.53;;;14.50;99.90;;;;;;4953919;29;20104;-96
2023/10/01 00:33:56;;;;;;;11.00;3.25;;;14.30;99.90;;;;;;4941586;29;20055;-96
2023/10/01 00:36:52;;;;;;;7.25;2.42;;;14.40;99.90;;;;;;4925922;28;20054;-96
2023/10/01 00:54:21;;;;;;;13.40;2.85;;;14.40;99.90;;;;;;5017356;28;20143;-96
2023/10/01 01:01:07;;;;;;;8.32;2.75;;;14.40;99.90;;;;;;4976386;28;20094;-96
2023/10/01 01:11:26;;;;;;;6.22;2.58;;;14.30;99.90;;;;;;5017117;28;20069;-96
2023/10/01 01:17:50;;;;;;;8.00;2.80;;;14.30;99.90;;;;;;4977081;28;20042;-96
2023/10/01 01:21:42;;;;;;;11.13;2.75;;;14.30;99.90;;;;;;4965022;28;20114;-96
2023/10/01 01:28:58;;;;;;;3.72;2.05;;;14.30;99.90;;;;;;4981729;28;20045;-96
2023/10/01 01:32:53;;;;;;;8.23;2.63;;;14.30;99.90;;;;;;4988021;28;20101;-96
2023/10/01 01:35:36;;;;;;;7.15;2.88;;;14.20;99.90;;;;;;4976954;28;20586;-96
2023/10/01 01:38:02;;;;;;;9.98;2.92;;;14.20;99.90;;;;;;4948967;28;20584;-96
2023/10/01 01:40:40;;;;;;;8.77;2.97;;;14.20;99.90;;;;;;4964591;28;20051;-95
2023/10/01 01:46:16;;;;;;;9.30;3.70;;;14.20;99.90;;;;;;5004457;28;20061;-96
2023/10/01 01:53:04;;;;;;;9.23;3.67;;;14.10;99.90;;;;;;4956720;28;20054;-96
2023/10/01 01:55:42;;;;;;;9.98;3.85;;;14.20;99.90;;;;;;5013733;28;20498;-96
2023/10/01 01:58:09;;;;;;;11.35;4.25;;;14.10;99.90;;;;;;5002858;28;20099;-96
2023/10/01 02:03:57;;;;;;;14.20;3.47;;;14.10;99.90;;;;;;4974238;28;20057;-96
2023/10/01 02:06:31;;;;;;;;;;;14.10;99.90;;;;;;4963416;28;20048;-96
2023/10/01 02:16:18;;;;;;;9.10;4.18;;;14.10;99.90;;;;;;4951866;28;20114;-96
2023/10/01 02:19:11;;;;;;;9.38;4.55;;;14.20;99.90;;;;;;4978658;28;20054;-96
2023/10/01 02:22:00;;;;;;;8.55;3.95;;;14.10;99.90;;;;;;4956420;28;20057;-96
2023/10/01 02:24:52;;;;;;;12.57;4.70;;;14.10;99.90;;;;;;4983619;28;20053;-96
2023/10/01 02:27:26;;;;;;;8.02;4.07;;;14.10;99.90;;;;;;4986898;28;20054;-96
2023/10/01 02:30:13;;;;;;;10.52;4.32;;;14.10;99.90;;;;;;4965916;28;20049;-96
2023/10/01 02:36:12;;;;;;;11.00;4.50;;;14.10;99.90;;;;;;5002537;28;20072;-96
2023/10/01 02:38:53;;;;;;;10.85;4.75;;;14.10;99.90;;;;;;4984634;28;20042;-96
2023/10/01 02:41:25;;;;;;;14.27;4.43;;;14.00;99.90;;;;;;4966601;28;20136;-96
2023/10/01 02:43:55;;;;;;;12.90;4.85;;;14.00;99.90;;;;;;4981955;28;20050;-96
2023/10/01 02:46:30;;;;;;;;;;;14.10;99.90;;;;;;4998072;28;20145;-96
2023/10/01 02:48:59;;;;;;;10.25;4.30;;;14.10;99.90;;;;;;5031512;28;20000;-96
2023/10/01 02:58:32;;;;;;;6.28;4.25;;;14.10;99.90;;;;;;5036794;28;20048;-96
2023/10/01 03:01:21;;;;;;;13.55;4.47;;;14.00;99.90;;;;;;5020516;28;20037;-96
2023/10/01 03:07:24;;;;;;;10.27;5.00;;;14.00;99.90;;;;;;5045136;28;20040;-96
2023/10/01 03:10:00;;;;;;;10.35;4.93;;;14.00;99.90;;;;;;5009049;28;20049;-96
2023/10/01 03:12:35;;;;;;;11.73;5.25;;;14.00;99.90;;;;;;5016781;28;20053;-96
2023/10/01 03:22:55;;;;;;;11.55;4.88;;;14.00;99.90;;;;;;5028645;28;20044;-96
2023/10/01 03:35:36;;;;;;;14.52;5.20;;;14.00;99.90;;;;;;5015320;28;20049;-96
2023/10/01 03:42:10;;;;;;;13.18;5.13;;;14.00;99.90;;;;;;5015144;28;20033;-96
2023/10/01 03:48:57;;;;;;;14.90;4.82;;;14.00;99.90;;;;;;5014408;28;20041;-96
2023/10/01 03:59:15;;;;;;;11.25;5.38;;;14.00;99.90;;;;;;5011963;28;20109;-96
2023/10/01 04:05:21;;;;;;;12.20;5.18;;;14.00;99.90;;;;;;5002456;28;20172;-96
2023/10/01 04:08:16;;;;;;;13.15;4.63;;;14.10;99.90;;;;;;4998340;28;20108;-96
2023/10/01 04:11:03;;;;;;;10.18;5.85;;;14.00;99.90;;;;;;4997188;28;20469;-96
2023/10/01 04:17:20;;;;;;;12.57;4.80;;;14.10;99.90;;;;;;5014660;28;20436;-96
2023/10/01 04:33:25;;;;;;;11.68;5.18;;;14.10;99.90;;;;;;5021071;23;20045;-66
2023/10/01 04:35:58;;;;;;;15.10;5.68;;;14.10;99.90;;;;;;5045746;28;20052;-66
2023/10/01 04:38:35;;;;;;;13.10;5.50;;;14.10;99.90;;;;;;5047490;28;20053;-66
2023/10/01 04:41:04;;;;;;;13.38;5.65;;;14.10;99.90;;;;;;5047513;28;20053;-66
2023/10/01 04:43:41;;;;;;;12.77;6.70;;;14.10;99.90;;;;;;5047229;28;20151;-66
2023/10/01 04:46:10;;;;;;;15.75;5.57;;;14.10;99.90;;;;;;5046314;28;20106;-66
2023/10/01 04:48:39;;;;;;;12.38;6.20;;;14.10;99.90;;;;;;5049171;28;20073;-66
2023/10/01 04:51:07;;;;;;;14.05;5.93;;;14.10;99.90;;;;;;5030273;28;20080;-66
2023/10/01 04:53:34;;;;;;;8.85;5.90;;;14.10;99.90;;;;;;5046267;28;20049;-66
2023/10/01 04:56:06;;;;;;;9.80;5.90;;;14.10;99.90;;;;;;5047894;28;20047;-66
2023/10/01 04:58:36;;;;;;;16.10;5.60;;;14.10;99.90;;;;;;5012515;28;20549;-65
2023/10/01 05:01:11;;;;;;;11.13;5.60;;;14.10;99.90;;;;;;5047002;28;20045;-66
2023/10/01 05:03:40;;;;;;;11.63;6.10;;;14.10;99.90;;;;;;5046995;28;20090;-66
2023/10/01 05:06:13;;;;;;;21.77;6.28;;;14.10;99.90;;;;;;5012118;28;20398;-65
2023/10/01 05:08:42;;;;;;;10.52;5.55;;;14.10;99.90;;;;;;5045237;28;20056;-65
2023/10/01 05:11:12;;;;;;;11.25;5.15;;;14.10;99.90;;;;;;5049038;28;20523;-65
2023/10/01 05:13:47;;;;;;;9.80;5.28;;;14.10;99.90;;;;;;5050483;28;20549;-65
2023/10/01 05:16:14;;;;;;;13.10;5.60;;;14.10;99.90;;;;;;5051095;28;20120;-65
2023/10/01 05:18:45;;;;;;;9.73;5.65;;;14.20;99.90;;;;;;5048232;28;20134;-66
2023/10/01 05:21:21;;;;;;;18.50;5.97;;;14.20;99.90;;;;;;5033177;28;20498;-66
2023/10/01 05:23:47;;;;;;;12.65;6.10;;;14.20;99.90;;;;;;5049627;28;20103;-66
2023/10/01 05:26:20;;;;;;;13.30;5.85;;;14.20;99.90;;;;;;5050904;28;20099;-66
2023/10/01 05:28:48;;;;;;;10.70;5.50;;;14.20;99.90;;;;;;5048619;28;20137;-66
2023/10/01 05:31:14;;;;;;;12.63;6.15;;;14.20;99.90;;;;;;5050290;28;20092;-65
2023/10/01 05:33:46;;;;;;;13.63;6.20;;;14.20;99.90;;;;;;5049869;28;20407;-66
2023/10/01 05:36:16;;;;;;;17.40;5.60;;;14.20;99.90;;;;;;5049840;28;20045;-66
2023/10/01 05:38:43;;;;;;;10.07;5.80;;;14.20;99.90;;;;;;5048687;28;20048;-66
2023/10/01 05:41:13;;;;;;;14.55;5.93;;;14.20;99.90;;;;;;5048638;28;20044;-66
2023/10/01 05:43:43;;;;;;;;;;;14.20;99.90;;;;;;5050736;28;20517;-66
2023/10/01 05:46:10;;;;;;;17.98;5.57;;;14.20;99.90;;;;;;5055251;28;20366;-66
2023/10/01 05:48:39;;;;;;;19.70;5.38;;;14.30;99.90;;;;;;5052991;28;20049;-65
2023/10/01 05:51:11;;;;;;;9.93;4.80;;;14.20;99.90;;;;;;5032667;28;20178;-66
2023/10/01 05:53:38;;;;;;;8.80;4.95;;;14.30;99.90;;;;;;5049235;28;20512;-66
2023/10/01 05:56:08;;;;;;;9.23;4.40;;;14.30;99.90;;;;;;5050830;28;20376;-66
2023/10/01 05:58:34;;;;;;;13.73;5.25;;;14.30;99.90;;;;;;5055104;28;20052;-66
2023/10/01 06:01:13;;;;;;;13.55;5.07;;;14.30;99.90;;;;;;5015673;28;20044;-66
2023/10/01 06:03:43;;;;;;;10.85;5.63;;;14.30;99.90;;;;;;5031663;28;20519;-66
2023/10/01 06:06:13;;;;;;;10.07;5.05;;;14.30;99.90;;;;;;5031878;28;20390;-68
2023/10/01 06:08:49;;;;;;;11.18;5.32;;;14.30;99.90;;;;;;5012336;28;20396;-69
2023/10/01 06:11:16;;;;;;;13.05;5.78;;;14.30;99.90;;;;;;5030967;28;20086;-69
2023/10/01 06:13:49;;;;;;;12.27;5.38;;;14.30;99.90;;;;;;5049803;28;20049;-70
2023/10/01 06:16:16;;;;;;;11.90;5.80;;;14.30;99.90;;;;;;5031395;28;20431;-70
2023/10/01 06:18:57;;;;;;;10.30;5.95;;;14.20;99.90;;;;;;5029673;28;20198;-70
2023/10/01 06:21:31;;;;;;;14.27;5.45;;;14.20;99.90;;;;;;5036086;28;20418;-69
2023/10/01 06:24:31;;;;;;;15.85;5.00;;;14.30;99.90;;;;;;5030041;28;20041;-70
2023/10/01 06:26:50;;;;;;;11.73;4.82;;;14.30;99.90;;;;;;5020905;28;20056;-70
2023/10/01 06:29:16;;;;;;;14.70;5.05;;;14.30;99.90;;;;;;5025773;28;20219;-70
2023/10/01 06:31:48;;;;;;;15.85;5.07;;;14.30;99.90;;;;;;5024186;28;20123;-71
2023/10/01 06:34:21;;;;;;;11.05;4.47;;;14.30;99.90;;;;;;5027365;28;20159;-70
2023/10/01 06:36:55;;;;;;;11.27;4.43;;;14.20;99.90;;;;;;5030325;28;20045;-70
2023/10/01 06:39:23;;;;;;;11.63;5.40;;;14.20;99.90;;;;;;5031035;28;20131;-70
2023/10/01 06:41:49;;;;;;;9.85;4.88;;;14.20;99.90;;;;;;5026735;28;20053;-70
2023/10/01 06:44:15;;;;;;;12.10;4.65;;;14.20;99.90;;;;;;5015111;28;20059;-70
2023/10/01 06:46:41;;;;;;;14.02;5.35;;;14.30;99.90;;;;;;5048053;28;20051;-70
2023/10/01 06:49:10;;;;;;;13.40;5.40;;;14.30;99.90;;;;;;4996641;28;20093;-70
2023/10/01 06:51:45;;;;;;;12.90;5.93;;;14.30;99.90;;;;;;5031431;28;20383;-70
2023/10/01 06:54:12;;;;;;;11.80;4.90;;;14.30;99.90;;;;;;5016885;28;20053;-70
2023/10/01 06:56:44;;;;;;;14.50;5.25;;;14.20;99.90;;;;;;5031270;28;20057;-70
2023/10/01 07:01:47;;;;;;;9.57;4.65;;;14.30;99.90;;;;;;5020710;28;20114;-70
2023/10/01 07:04:15;;;;;;;12.95;5.30;;;14.30;99.90;;;;;;5029346;28;20455;-70
2023/10/01 07:06:44;;;;;;;14.73;5.35;;;14.30;99.90;;;;;;5024013;28;20045;-70
2023/10/01 07:09:27;;;;;;;13.25;5.18;;;14.20;99.90;;;;;;5031169;28;20124;-70
2023/10/01 07:11:57;;;;;;;10.00;4.55;;;14.40;99.90;;;;;;5047427;28;20473;-69
2023/10/01 07:14:45;;;;;;;;;;;14.40;99.90;;;;;;5031498;28;20049;-69
2023/10/01 07:17:18;;;;;;;14.70;5.45;;;14.30;99.90;;;;;;5027530;28;19924;-69
2023/10/01 07:19:46;;;;;;;8.18;5.03;;;14.40;99.90;;;;;;5017322;28;20510;-69
2023/10/01 07:22:14;;;;;;;11.77;5.88;;;14.50;99.90;;;;;;5030969;28;20118;-69
2023/10/01 07:24:43;;;;;;;14.10;5.43;;;14.40;99.90;;;;;;5029273;28;20486;-69
2023/10/01 07:27:11;;;;;;;13.05;5.13;;;14.50;99.90;;;;;;5045109;28;20049;-69
2023/10/01 07:29:43;;;;;;;14.93;5.72;;;14.50;99.90;;;;;;5035561;28;20052;-69
2023/10/01 07:32:12;;;;;;;10.73;5.35;;;14.50;99.90;;;;;;5030163;28;20084;-68
2023/10/01 07:34:39;;;;;;;14.38;6.25;;;14.50;99.90;;;;;;5029318;28;20127;-69
2023/10/01 07:37:07;;;;;;;16.55;6.10;;;14.50;99.90;;;;;;5029649;28;20049;-69
2023/10/01 07:39:34;;;;;;;11.88;4.82;;;14.50;99.90;;;;;;5048559;28;20056;-69
2023/10/01 07:42:04;;;;;;;11.02;5.10;;;14.50;99.90;;;;;;5027875;28;20045;-70
2023/10/01 07:44:35;;;;;;;12.45;5.68;;;14.50;99.90;;;;;;5034238;28;20390;-69
2023/10/01 07:47:03;;;;;;;12.25;5.97;;;14.60;99.90;;;;;;5031023;28;20045;-69
2023/10/01 07:49:46;;;;;;;14.40;6.00;;;14.60;99.90;;;;;;5040014;28;20520;-69
2023/10/01 07:52:19;;;;;;;12.75;5.80;;;14.60;99.90;;;;;;5047735;28;20080;-69
2023/10/01 07:54:47;;;;;;;14.10;5.78;;;14.70;99.90;;;;;;5029080;28;20049;-69
2023/10/01 07:57:17;;;;;;;16.00;5.90;;;14.70;99.90;;;;;;5022092;28;20491;-69
2023/10/01 07:59:46;;;;;;;12.02;5.57;;;14.70;99.90;;;;;;5028658;28;20041;-70
2023/10/01 08:07:18;;;;;;;13.10;5.70;;;15.00;99.90;;;;;;5027316;28;20046;-70
2023/10/01 08:09:57;;;;;;;12.73;4.78;;;15.10;99.90;;;;;;5029614;28;20045;-70
2023/10/01 08:13:05;;;;;;;13.43;5.47;;;15.00;99.90;;;;;;5046075;28;20110;-70
2023/10/01 08:15:29;;;;;;;16.08;5.95;;;15.10;99.90;;;;;;5044132;28;20418;-70
2023/10/01 08:20:58;;;;;;;14.07;5.90;;;15.10;99.90;;;;;;5028388;28;20053;-70
2023/10/01 08:23:28;;;;;;;12.43;5.45;;;15.20;99.90;;;;;;5030409;28;20128;-69
2023/10/01 08:25:55;;;;;;;14.25;5.82;;;15.30;99.90;;;;;;5028144;28;20591;-69
2023/10/01 08:30:49;;;;;;;22.30;5.53;;;15.30;99.90;;;;;;5028436;28;20053;-69
2023/10/01 08:33:32;;;;;;;17.08;5.32;;;15.30;99.90;;;;;;5010446;28;20118;-69
2023/10/01 08:36:12;;;;;;;10.82;5.07;;;15.30;99.90;;;;;;5028389;28;20239;-69
2023/10/01 08:38:47;;;;;;;10.95;4.85;;;15.40;99.90;;;;;;5025646;28;20037;-70
2023/10/01 08:41:32;;;;;;;21.17;5.60;;;15.40;99.90;;;;;;5023492;28;20057;-69
2023/10/01 08:44:09;;;;;;;12.60;5.38;;;15.50;99.90;;;;;;5020337;28;20045;-69
2023/10/01 08:46:39;;;;;;;16.40;5.70;;;15.50;99.90;;;;;;5025637;28;20041;-69
2023/10/01 08:49:23;;;;;;;10.88;5.28;;;15.50;99.90;;;;;;5021942;28;20487;-69
2023/10/01 08:52:19;;;;;;;12.30;5.75;;;15.50;99.90;;;;;;5029683;28;20091;-69
2023/10/01 08:54:45;;;;;;;11.10;5.00;;;15.50;99.90;;;;;;5025504;28;20056;-70
2023/10/01 08:57:18;;;;;;;12.35;5.07;;;15.50;99.90;;;;;;5032009;28;20051;-69
2023/10/01 08:59:47;;;;;;;14.18;5.45;;;15.60;99.90;;;;;;5023624;28;20038;-69
2023/10/01 09:02:19;;;;;;;12.15;5.35;;;15.60;99.90;;;;;;5027925;28;20475;-69
2023/10/01 09:04:47;;;;;;;10.68;5.30;;;15.70;99.90;;;;;;5041826;28;20473;-69
2023/10/01 09:07:18;;;;;;;11.35;5.53;;;15.70;99.90;;;;;;5032655;28;20398;-70
2023/10/01 09:10:08;;;;;;;14.02;5.70;;;15.60;99.90;;;;;;5048052;28;20044;-69
2023/10/01 09:12:35;;;;;;;13.77;5.22;;;15.80;99.90;;;;;;5022059;28;20462;-69
2023/10/01 09:15:04;;;;;;;17.45;5.60;;;15.70;99.90;;;;;;5030267;28;20049;-69
2023/10/01 09:17:56;;;;;;;21.33;6.22;;;15.80;99.90;;;;;;5043157;28;20088;-69
2023/10/01 09:20:39;;;;;;;13.63;5.10;;;15.80;99.90;;;;;;5031623;28;20148;-69
2023/10/01 09:23:06;;;;;;;13.80;5.30;;;16.00;99.90;;;;;;5019144;28;20053;-69
2023/10/01 09:25:39;;;;;;;11.88;6.22;;;16.00;99.90;;;;;;5031367;28;20063;-68
2023/10/01 09:28:19;;;;;;;11.45;4.70;;;16.00;99.90;;;;;;5012942;28;20431;-68
2023/10/01 09:31:01;;;;;;;17.15;5.47;;;16.20;99.90;;;;;;5050328;28;20116;-69
2023/10/01 09:33:29;;;;;;;13.25;4.80;;;16.20;99.90;;;;;;5031785;28;20620;-68
2023/10/01 09:36:01;;;;;;;14.82;5.78;;;16.30;99.90;;;;;;5019399;28;20075;-69
2023/10/01 09:38:30;;;;;;;13.10;5.53;;;16.30;99.90;;;;;;5014572;28;20501;-69
2023/10/01 09:40:57;;;;;;;10.17;5.20;;;16.40;99.90;;;;;;5025411;28;20132;-69
2023/10/01 09:43:30;;;;;;;14.95;5.78;;;16.40;99.90;;;;;;5030423;28;20785;-68
2023/10/01 09:46:03;;;;;;;11.43;4.28;;;16.50;99.90;;;;;;5025879;28;20044;-68
2023/10/01 09:48:33;;;;;;;12.20;5.88;;;16.70;99.90;;;;;;5028633;28;20056;-68
2023/10/01 09:51:13;;;;;;;;;;;16.70;99.90;;;;;;5032162;28;20436;-70
2023/10/01 09:53:56;;;;;;;22.48;6.70;;;16.80;99.90;;;;;;5030176;28;20058;-71
2023/10/01 09:56:29;;;;;;;13.95;5.10;;;16.90;99.90;;;;;;5020814;28;20044;-70
2023/10/01 09:59:03;;;;;;;13.95;5.97;;;17.00;99.90;;;;;;5029663;28;20623;-70
2023/10/01 10:01:33;;;;;;;13.18;5.72;;;17.10;99.90;;;;;;5030891;28;20048;-70
2023/10/01 10:04:04;;;;;;;16.05;5.60;;;17.10;99.90;;;;;;5009028;28;20045;-71
2023/10/01 10:06:31;;;;;;;18.17;5.05;;;17.20;99.90;;;;;;5014209;28;20451;-70
2023/10/01 10:09:03;;;;;;;17.90;6.60;;;17.30;99.90;;;;;;5027065;28;20049;-70
2023/10/01 10:11:30;;;;;;;13.45;5.25;;;17.40;99.90;;;;;;5028611;28;20110;-71
2023/10/01 10:14:00;;;;;;;13.05;5.57;;;17.50;99.90;;;;;;5026840;28;20156;-70
2023/10/01 10:16:32;;;;;;;14.35;5.78;;;17.60;99.90;;;;;;5013726;28;20096;-70
2023/10/01 10:19:09;;;;;;;15.65;5.88;;;17.80;99.90;;;;;;5042560;28;20073;-70
2023/10/01 10:24:34;;;;;;;13.20;5.10;;;18.20;99.90;;;;;;5031025;28;20146;-70
2023/10/01 10:27:06;;;;;;;19.58;6.82;;;18.60;99.90;;;;;;5030595;28;20098;-70
2023/10/01 10:29:56;;;;;;;12.38;5.05;;;18.80;99.90;;;;;;5002455;28;20124;-70
2023/10/01 10:32:42;;;;;;;19.85;6.13;;;18.90;99.90;;;;;;5029133;28;20124;-70
2023/10/01 10:35:14;;;;;;;18.77;6.45;;;18.90;99.90;;;;;;5040848;28;20057;-70
2023/10/01 10:37:53;;;;;;;14.90;6.15;;;18.90;99.90;;;;;;5026459;28;20402;-70
2023/10/01 10:43:01;;;;;;;19.17;5.80;;;18.90;99.90;;;;;;5013316;28;20052;-70
2023/10/01 10:45:42;;;;;;;21.00;5.32;;;18.90;99.90;;;;;;5027505;28;20045;-69
2023/10/01 10:48:24;;;;;;;16.58;5.43;;;18.80;99.90;;;;;;5030118;28;20057;-70
2023/10/01 10:50:57;;;;;;;15.27;5.72;;;18.90;99.90;;;;;;5039293;28;20048;-70
2023/10/01 10:53:23;;;;;;;16.80;5.80;;;18.90;99.90;;;;;;5005859;28;20045;-70
2023/10/01 10:56:07;;;;;;;13.02;5.38;;;19.00;99.90;;;;;;5020256;28;20503;-69
2023/10/01 10:59:13;;;;;;;10.57;5.78;;;19.10;99.90;;;;;;5030896;28;20053;-69
2023/10/01 11:01:46;;;;;;;12.38;5.57;;;19.30;99.90;;;;;;5029480;28;20045;-70
2023/10/01 11:04:16;;;;;;;15.65;6.25;;;19.60;99.90;;;;;;5030498;28;20052;-70
2023/10/01 11:06:42;;;;;;;17.58;5.57;;;19.80;99.90;;;;;;5030114;28;20040;-70
2023/10/01 11:09:27;;;;;;;19.58;5.82;;;20.00;99.90;;;;;;5029629;28;20486;-70
2023/10/01 11:12:05;;;;;;;15.32;6.82;;;20.10;99.90;;;;;;5030257;28;20063;-70
2023/10/01 11:14:39;;;;;;;15.52;6.03;;;20.20;99.90;;;;;;5029528;28;20500;-69
2023/10/01 11:17:06;;;;;;;15.77;5.30;;;20.30;99.90;;;;;;5010130;28;20098;-70
2023/10/01 11:19:36;;;;;;;13.07;5.55;;;20.30;99.90;;;;;;5047203;28;20045;-69
2023/10/01 11:22:07;;;;;;;15.25;5.88;;;20.20;99.90;;;;;;5042900;28;20049;-70
2023/10/01 11:24:39;;;;;;;12.57;5.15;;;20.20;99.90;;;;;;5005481;28;20060;-69
2023/10/01 11:27:25;;;;;;;13.50;5.15;;;20.20;99.90;;;;;;5031356;28;20113;-69
2023/10/01 11:30:20;;;;;;;14.55;5.30;;;20.10;99.90;;;;;;5035888;28;20088;-70
2023/10/01 11:32:58;;;;;;;11.00;5.15;;;20.00;99.90;;;;;;5034113;28;20489;-69
2023/10/01 11:35:32;;;;;;;15.40;5.63;;;20.00;99.90;;;;;;5022797;28;20057;-69
2023/10/01 11:37:58;;;;;;;12.80;4.55;;;20.00;99.90;;;;;;5027922;28;20041;-69
2023/10/01 11:41:06;;;;;;;12.18;5.13;;;20.10;99.90;;;;;;5045240;28;20487;-69
2023/10/01 11:43:23;;;;;;;10.77;4.95;;;20.10;99.90;;;;;;5024587;28;20060;-69
2023/10/01 11:46:18;;;;;;;19.30;6.47;;;20.20;99.90;;;;;;5047606;28;20041;-69
2023/10/01 11:48:59;;;;;;;14.48;4.80;;;20.20;99.90;;;;;;5045276;28;20040;-69
2023/10/01 11:51:32;;;;;;;13.68;5.63;;;20.30;99.90;;;;;;5020938;28;20493;-69
2023/10/01 11:54:10;;;;;;;13.38;4.78;;;20.40;99.90;;;;;;5042652;28;20494;-69
2023/10/01 11:57:05;;;;;;;16.52;5.93;;;20.40;99.90;;;;;;5011155;28;20041;-69
2023/10/01 11:59:32;;;;;;;9.00;4.80;;;20.40;99.90;;;;;;5047482;28;20049;-70
2023/10/01 12:02:18;;;;;;;14.25;5.10;;;20.40;99.90;;;;;;5028679;28;20037;-69
2023/10/01 12:04:44;;;;;;;16.15;5.88;;;20.40;99.90;;;;;;5046725;28;20053;-70
2023/10/01 12:07:16;;;;;;;12.60;5.78;;;20.40;99.90;;;;;;5032882;28;20088;-69
2023/10/01 12:09:50;;;;;;;13.48;5.78;;;20.30;99.90;;;;;;5044629;28;20048;-69
2023/10/01 12:12:25;;;;;;;13.45;3.88;;;20.30;99.90;;;;;;5029395;28;20107;-69
2023/10/01 12:14:55;;;;;;;17.00;5.32;;;20.20;99.90;;;;;;5046874;28;20041;-69
2023/10/01 12:17:27;;;;;;;17.27;5.55;;;20.20;99.90;;;;;;5045891;28;20120;-69
2023/10/01 12:19:55;;;;;;;14.90;4.93;;;20.10;99.90;;;;;;5046152;28;20051;-69
2023/10/01 12:22:24;;;;;;;16.35;6.07;;;20.10;99.90;;;;;;5032901;28;20104;-70
2023/10/01 12:24:56;;;;;;;13.97;5.77;;;20.10;99.90;;;;;;5028048;28;20041;-69
2023/10/01 12:27:37;;;;;;;13.90;5.45;;;20.20;99.90;;;;;;5047554;28;20325;-69
2023/10/01 12:30:04;;;;;;;15.15;6.25;;;20.20;99.90;;;;;;5041893;28;20116;-70
2023/10/01 12:32:41;;;;;;;11.38;5.18;;;20.30;99.90;;;;;;5031265;28;20380;-68
2023/10/01 12:35:18;;;;;;;17.23;5.53;;;20.40;99.90;;;;;;5045166;28;20037;-69
2023/10/01 12:37:45;;;;;;;15.40;6.35;;;20.60;99.90;;;;;;5014492;28;20136;-70
2023/10/01 12:40:16;;;;;;;11.85;5.18;;;20.70;99.90;;;;;;5032178;28;20052;-69
2023/10/01 12:42:52;;;;;;;10.38;4.55;;;20.80;99.90;;;;;;5031801;28;20057;-69
2023/10/01 12:45:27;;;;;;;16.90;6.60;;;21.00;99.90;;;;;;5029589;28;20056;-69
2023/10/01 12:47:53;;;;;;;16.55;6.00;;;21.10;99.90;;;;;;5046913;28;20403;-68
2023/10/01 12:50:28;;;;;;;12.27;5.63;;;21.10;99.90;;;;;;4986122;28;20052;-68
2023/10/01 12:53:19;;;;;;;16.27;6.65;;;21.20;99.90;;;;;;5030717;28;20059;-68
2023/10/01 12:55:51;;;;;;;12.20;4.35;;;21.20;96.50;;;;;;5031852;28;20567;-68
2023/10/01 12:58:18;;;;;;;14.32;4.55;;;21.20;93.40;;;;;;5056696;28;20572;-68
2023/10/01 13:00:47;;;;;;;14.75;6.00;;;21.20;96.70;;;;;;5032264;28;20041;-68
2023/10/01 13:03:19;;;;;;;14.52;5.60;;;21.20;96.90;;;;;;5015957;28;20109;-68
2023/10/01 13:05:49;;;;;;;17.63;5.90;;;21.30;95.70;;;;;;5046040;28;20044;-69
2023/10/01 13:08:27;;;;;;;9.23;4.50;;;21.30;94.80;;;;;;5041648;28;20511;-68
2023/10/01 13:10:57;;;;;;;10.98;4.82;;;21.30;94.30;;;;;;5027912;28;20056;-68
2023/10/01 13:13:35;;;;;;;13.52;5.25;;;21.30;93.40;;;;;;5045956;28;20052;-68
2023/10/01 13:16:02;;;;;;;16.88;5.40;;;21.30;94.40;;;;;;5031522;28;20668;-68
2023/10/01 13:18:34;;;;;;;15.70;5.43;;;21.20;94.30;;;;;;5049110;28;20041;-68
2023/10/01 13:21:09;;;;;;;11.05;5.32;;;21.20;95.50;;;;;;5030224;28;20633;-68
2023/10/01 13:23:42;;;;;;;14.98;6.40;;;21.20;94.60;;;;;;5041983;28;20495;-68
2023/10/01 13:26:14;;;;;;;20.15;6.85;;;21.10;90.70;;;;;;5027576;28;20045;-68
2023/10/01 13:28:56;;;;;;;10.57;5.43;;;21.00;88.80;;;;;;5028338;28;20048;-68
2023/10/01 14:09:47;;;;;;;10.10;5.85;;;21.20;97.60;;;;;;5030611;28;20116;-67
2023/10/01 14:12:41;;;;;;;13.43;6.25;;;21.20;98.30;;;;;;5031300;28;20146;-67
2023/10/01 14:15:05;;;;;;;15.30;6.07;;;21.20;98.30;;;;;;5030726;28;20049;-67
2023/10/01 14:17:32;;;;;;;13.52;6.28;;;21.20;98.20;;;;;;5019850;28;20049;-68
2023/10/01 14:19:58;;;;;;;11.60;5.47;;;21.10;93.90;;;;;;5029141;28;20049;-67
2023/10/01 14:22:24;;;;;;;12.25;6.20;;;21.10;96.10;;;;;;5030049;28;20083;-66
2023/10/01 14:24:52;;;;;;;20.52;6.30;;;21.10;97.80;;;;;;5029234;28;20568;-67
2023/10/01 14:27:29;;;;;;;14.93;6.07;;;21.00;97.10;;;;;;5036507;28;20041;-67
2023/10/01 14:30:23;;;;;;;14.32;5.85;;;21.00;96.50;;;;;;5001651;28;20061;-67
2023/10/01 14:32:51;;;;;;;15.77;6.68;;;21.00;98.50;;;;;;5043361;28;20486;-68
2023/10/01 14:35:17;;;;;;;;;;;20.90;96.90;;;;;;5026864;28;20054;-67
2023/10/01 14:37:56;;;;;;;12.35;6.10;;;20.90;95.90;;;;;;5024753;28;20339;-67
2023/10/01 14:40:23;;;;;;;20.23;6.30;;;20.90;96.10;;;;;;5047496;28;20045;-68
2023/10/01 14:43:03;;;;;;;12.20;5.20;;;20.80;96.10;;;;;;5007973;28;20053;-67
2023/10/01 14:45:34;;;;;;;17.42;6.97;;;20.80;89.40;;;;;;5045154;28;20051;-67
2023/10/01 14:48:06;;;;;;;13.93;6.20;;;20.70;93.40;;;;;;5031124;28;20053;-67
2023/10/01 14:50:41;;;;;;;12.70;5.57;;;20.70;95.40;;;;;;5046107;28;20106;-68
2023/10/01 14:53:18;;;;;;;11.10;6.22;;;20.70;97.90;;;;;;5030911;28;20514;-67
2023/10/01 14:55:44;;;;;;;13.55;6.40;;;20.70;97.90;;;;;;5046847;28;20047;-67
2023/10/01 14:58:15;;;;;;;14.85;5.88;;;20.70;99.40;;;;;;5030451;28;20059;-67
2023/10/01 15:00:57;;;;;;;14.00;6.53;;;20.70;98.50;;;;;;5045328;28;20033;-67
2023/10/01 15:03:33;;;;;;;13.68;6.85;;;20.70;99.10;;;;;;5047704;28;20525;-67
2023/10/01 15:06:18;;;;;;;13.70;5.97;;;20.70;99.90;;;;;;5031459;28;20461;-67
2023/10/01 15:08:43;;;;;;;13.43;6.30;;;20.60;99.90;;;;;;5048407;28;20087;-67
2023/10/01 15:11:12;;;;;;;15.95;6.35;;;20.50;99.90;;;;;;5046175;28;20058;-68
2023/10/01 15:13:48;;;;;;;16.02;6.68;;;20.50;99.70;;;;;;5047273;28;20048;-67
2023/10/01 15:16:15;;;;;;;13.50;6.18;;;20.50;97.60;;;;;;5033845;28;20041;-67
2023/10/01 15:18:46;;;;;;;15.35;6.57;;;20.50;97.80;;;;;;5030908;28;20049;-67
2023/10/01 15:21:30;;;;;;;11.55;5.53;;;20.40;98.70;;;;;;5043300;28;20033;-68
2023/10/01 15:23:59;;;;;;;12.80;5.55;;;20.50;99.80;;;;;;5046351;28;20110;-67
2023/10/01 15:26:30;;;;;;;15.50;5.93;;;20.40;99.90;;;;;;5044108;28;20483;-67
2023/10/01 15:28:57;;;;;;;15.88;6.97;;;20.40;99.60;;;;;;5046985;28;20052;-67
2023/10/01 15:31:30;;;;;;;18.33;6.05;;;20.40;99.30;;;;;;5047676;28;20128;-67
2023/10/01 15:34:00;;;;;;;14.70;5.97;;;20.40;99.90;;;;;;5043807;28;20103;-67
2023/10/01 15:44:56;;;;;;;12.98;5.72;;;20.20;99.90;;;;;;5024940;28;20060;-67
2023/10/01 15:47:39;;;;;;;9.48;4.88;;;20.20;99.90;;;;;;5040628;28;20127;-67
2023/10/01 15:50:06;;;;;;;17.70;6.22;;;20.20;99.90;;;;;;5045436;28;20120;-67
2023/10/01 15:52:51;;;;;;;16.45;6.63;;;20.10;99.90;;;;;;5045573;28;20064;-67
2023/10/01 15:55:32;;;;;;;15.13;6.82;;;20.10;99.90;;;;;;5042099;28;20442;-67
2023/10/01 15:58:02;;;;;;;16.20;6.30;;;20.00;99.90;;;;;;5027575;28;20102;-67
2023/10/01 16:00:32;;;;;;;14.00;5.03;;;20.00;99.90;;;;;;5025587;28;20053;-67
2023/10/01 16:03:02;;;;;;;17.08;6.65;;;20.00;99.90;;;;;;5028786;28;20056;-67
2023/10/01 16:05:39;;;;;;;10.23;5.60;;;19.90;99.90;;;;;;5028380;28;20067;-67
2023/10/01 16:08:22;;;;;;;13.93;6.05;;;19.90;99.90;;;;;;5037822;28;20511;-67
2023/10/01 16:10:58;;;;;;;13.82;6.15;;;19.90;99.90;;;;;;5041021;28;20044;-67
2023/10/01 16:13:34;;;;;;;12.38;5.95;;;19.90;99.90;;;;;;5046410;28;20049;-67
2023/10/01 16:16:03;;;;;;;11.57;6.18;;;19.80;99.90;;;;;;5045601;28;20044;-67
2023/10/01 16:18:48;;;;;;;14.85;6.93;;;19.80;99.90;;;;;;5046658;28;20044;-67
2023/10/01 16:21:18;;;;;;;16.05;5.82;;;19.80;99.90;;;;;;5045678;28;20474;-66
2023/10/01 16:23:49;;;;;;;15.07;6.50;;;19.80;99.90;;;;;;5040410;28;20075;-67
2023/10/01 16:26:17;;;;;;;14.70;6.10;;;19.70;99.90;;;;;;5043598;28;20048;-67
2023/10/01 16:28:44;;;;;;;17.02;6.65;;;19.70;99.90;;;;;;5044637;28;20041;-67
2023/10/01 16:31:15;;;;;;;13.85;5.75;;;19.60;99.90;;;;;;5044484;28;20103;-67
2023/10/01 16:33:45;;;;;;;14.73;6.65;;;19.60;99.90;;;;;;5045083;28;20474;-66
2023/10/01 16:36:17;;;;;;;17.13;7.10;;;19.50;99.90;;;;;;5045625;28;20059;-67
2023/10/01 16:38:47;;;;;;;12.88;6.10;;;19.50;99.90;;;;;;5024538;28;20510;-67
2023/10/01 16:41:18;;;;;;;14.43;6.25;;;19.50;99.90;;;;;;5020350;28;20048;-67
2023/10/01 16:43:52;;;;;;;16.10;6.07;;;19.40;99.90;;;;;;5045749;28;20033;-67
2023/10/01 16:46:23;;;;;;;16.40;6.35;;;19.40;99.90;;;;;;5043704;28;20044;-67
2023/10/01 16:48:57;;;;;;;11.88;5.88;;;19.30;99.90;;;;;;5044579;28;20045;-66
2023/10/01 16:51:23;;;;;;;16.35;6.28;;;19.30;99.90;;;;;;5047367;28;20076;-67